Terminal Aerodrome Forecast
Issued by NWS Riverton, WY

Home | Current Version | Previous Version | Text Only | Print | Product List | Glossary On
Versions: 1 2 3 4 5 6 7 8 9 10 11 12 13
000
FTUS45 KRIW 311200 AAA
TAFRIW
TAF AMD
KRIW 311251Z 3113/0112 VRB05KT P6SM VCFG FEW002 BKN110
      TEMPO 3113/3114 3SM BR SCT002
     FM311400 VRB05KT P6SM SCT110 BKN250
     FM311700 02008KT P6SM SCT250
     FM312300 02012G18KT P6SM SCT030
     FM010400 04009KT P6SM VCSH OVC020=

USA.gov is the U.S. government's official web portal to all federal, state and local government web resources and services.